Time;durP1;ratioP1;P1;durP2;ratioP2;P2;SDS_P1;SDS_P2;PMS_P1;PMS_P2;Temp;Humidity;BMP_temperature;BMP_pressure;BME280_temperature;BME280_humidity;BME280_pressure;Samples;Min_cycle;Max_cycle;Signal;HPM_P1;HPM_P2
2021/03/29 00:00:29;;;;;;;25.08;9.80;;;;;;;9.96;41.46;96286.63;4919375;29;20089;-82
2021/03/29 00:02:55;;;;;;;23.50;8.60;;;;;;;9.97;40.64;96287.44;4944209;29;20041;-82
2021/03/29 00:05:22;;;;;;;19.33;8.45;;;;;;;9.93;40.90;96287.00;4920863;29;20035;-83
2021/03/29 00:07:49;;;;;;;20.35;9.85;;;;;;;9.86;41.06;96280.97;4921482;29;20024;-83
2021/03/29 00:10:15;;;;;;;18.80;9.25;;;;;;;9.82;41.26;96274.53;4906199;29;20035;-84
2021/03/29 00:12:42;;;;;;;24.65;11.55;;;;;;;9.82;41.48;96277.16;4937248;29;20027;-84
2021/03/29 00:15:10;;;;;;;17.27;7.78;;;;;;;9.74;41.19;96278.09;4939981;29;20094;-83
2021/03/29 00:17:38;;;;;;;13.80;7.30;;;;;;;9.78;41.21;96291.50;4924567;29;20047;-84
2021/03/29 00:20:14;;;;;;;13.52;6.47;;;;;;;9.77;41.01;96276.94;4930839;29;20504;-84
2021/03/29 00:22:40;;;;;;;13.65;5.60;;;;;;;9.73;41.20;96276.47;4932830;29;20111;-83
2021/03/29 00:25:07;;;;;;;10.88;5.82;;;;;;;9.69;40.90;96264.88;4929579;29;20039;-84
2021/03/29 00:27:33;;;;;;;15.43;5.32;;;;;;;9.61;41.12;96263.25;4964064;29;20034;-84
2021/03/29 00:29:59;;;;;;;10.05;5.25;;;;;;;9.51;41.12;96267.94;4977845;23;20038;-84
2021/03/29 00:32:24;;;;;;;9.80;5.75;;;;;;;9.50;41.43;96261.16;4999408;28;20573;-84
2021/03/29 00:34:50;;;;;;;8.43;5.07;;;;;;;9.46;41.70;96259.94;4965842;28;20041;-83
2021/03/29 00:46:57;;;;;;;6.75;5.05;;;;;;;9.18;41.54;96272.88;4948140;29;20122;-88
2021/03/29 00:50:36;;;;;;;11.95;6.00;;;;;;;9.13;41.58;96269.25;5027515;23;20034;-86
2021/03/29 00:58:39;;;;;;;23.15;10.25;;;;;;;8.88;42.50;96251.47;5005454;28;20050;-86
2021/03/29 01:07:28;;;;;;;9.02;6.05;;;;;;;8.75;42.48;96260.91;4317877;26;20057;-86
2021/03/29 01:10:06;;;;;;;8.10;5.35;;;;;;;8.74;42.30;96254.91;4947110;28;20558;-86
2021/03/29 01:12:34;;;;;;;10.23;5.45;;;;;;;8.80;42.50;96255.97;4974471;28;20078;-87
2021/03/29 01:31:45;;;;;;;17.35;7.05;;;;;;;9.16;40.98;96253.31;5067190;23;20406;-87
2021/03/29 01:34:52;;;;;;;15.25;7.20;;;;;;;9.26;41.08;96248.56;4998487;28;20049;-87
2021/03/29 01:43:33;;;;;;;8.25;5.47;;;;;;;9.45;40.35;96257.53;4959332;28;20106;-86
2021/03/29 01:46:38;;;;;;;8.10;5.53;;;;;;;9.50;40.38;96258.56;4990224;23;20034;-85
2021/03/29 01:49:03;;;;;;;8.75;5.90;;;;;;;9.60;40.43;96263.44;5835229;23;20084;-85
2021/03/29 01:51:29;;;;;;;10.57;6.63;;;;;;;9.62;40.41;96259.66;4986332;28;20216;-85
2021/03/29 01:53:54;;;;;;;9.93;5.93;;;;;;;9.69;40.07;96256.28;4977361;28;20038;-86
2021/03/29 01:56:20;;;;;;;10.20;5.10;;;;;;;9.67;40.19;96263.47;4959937;28;20078;-88
2021/03/29 02:07:48;;;;;;;10.55;4.85;;;;;;;9.58;39.70;96253.19;4209985;26;20093;-87
2021/03/29 02:10:17;;;;;;;5.15;4.55;;;;;;;9.72;39.68;96274.88;4929391;29;20051;-87
2021/03/29 02:12:45;;;;;;;8.15;5.03;;;;;;;9.74;40.08;96272.09;4928093;29;20066;-86
2021/03/29 02:15:12;;;;;;;7.70;4.40;;;;;;;9.80;39.64;96271.34;4921759;29;20118;-87
2021/03/29 02:17:38;;;;;;;8.85;4.80;;;;;;;9.82;40.04;96264.16;4932616;29;20076;-86
2021/03/29 02:22:32;;;;;;;9.95;5.70;;;;;;;9.84;39.92;96275.16;5016485;23;20059;-87
2021/03/29 02:24:57;;;;;;;15.38;5.93;;;;;;;9.85;40.05;96261.16;4972628;28;20053;-87
2021/03/29 02:27:23;;;;;;;8.07;4.95;;;;;;;9.78;40.08;96260.34;5017795;23;20057;-86
2021/03/29 02:29:51;;;;;;;9.70;5.75;;;;;;;9.82;40.28;96253.75;4988291;28;20050;-86
2021/03/29 02:32:16;;;;;;;30.38;7.68;;;;;;;9.85;40.77;96263.78;5085992;23;20086;-86
2021/03/29 02:34:42;;;;;;;26.67;9.07;;;;;;;9.85;41.57;96255.97;4975338;28;20179;-86
2021/03/29 02:37:14;;;;;;;37.10;9.52;;;;;;;9.73;41.58;96254.91;4988509;23;20049;-86
2021/03/29 02:39:52;;;;;;;31.23;10.55;;;;;;;9.63;41.80;96248.25;5011843;23;20045;-86
2021/03/29 02:42:18;;;;;;;24.25;10.10;;;;;;;9.68;42.04;96254.69;4990697;23;20055;-85
2021/03/29 02:44:43;;;;;;;49.13;13.85;;;;;;;9.64;42.42;96262.06;4933624;28;20027;-86
2021/03/29 02:50:54;;;;;;;55.08;17.95;;;;;;;9.60;42.93;96272.03;5371820;23;20116;-84
2021/03/29 02:53:25;;;;;;;74.10;24.45;;;;;;;9.65;42.51;96274.03;5002576;28;20057;-84
2021/03/29 03:01:48;;;;;;;58.22;19.13;;;;;;;9.56;43.26;96278.56;4023100;23;20065;-85
2021/03/29 03:04:19;;;;;;;51.50;17.05;;;;;;;9.28;44.67;96265.59;4997770;28;20092;-85
2021/03/29 03:06:45;;;;;;;53.45;14.82;;;;;;;9.21;45.46;96276.91;4994814;28;20042;-86
2021/03/29 03:09:12;;;;;;;33.17;14.63;;;;;;;9.06;45.17;96268.38;4999835;28;20069;-86
2021/03/29 03:11:49;;;;;;;13.27;7.70;;;;;;;9.24;42.68;96268.72;4996965;23;20106;-86
2021/03/29 03:14:15;;;;;;;31.15;14.27;;;;;;;9.10;43.04;96254.03;4979694;28;20081;-86
2021/03/29 03:16:41;;;;;;;27.15;9.85;;;;;;;9.18;42.45;96256.50;4978288;28;20039;-86
2021/03/29 03:26:15;;;;;;;14.20;6.00;;;;;;;8.85;42.46;96254.44;4949144;28;20046;-87
2021/03/29 03:29:07;;;;;;;20.10;6.10;;;;;;;9.01;42.57;96282.72;4962880;28;20070;-86
2021/03/29 03:31:33;;;;;;;17.33;10.20;;;;;;;9.03;42.84;96274.75;4983806;28;20044;-86
2021/03/29 03:33:59;;;;;;;39.30;16.58;;;;;;;9.02;43.49;96271.34;4964971;28;20154;-86
2021/03/29 03:36:25;;;;;;;52.47;17.65;;;;;;;9.05;43.73;96274.56;4951325;28;20212;-87
2021/03/29 03:38:51;;;;;;;49.00;20.23;;;;;;;9.04;43.69;96271.16;4985239;28;20602;-87
2021/03/29 03:42:19;;;;;;;55.00;22.33;;;;;;;9.22;43.31;96273.31;4983186;28;20039;-86
2021/03/29 03:44:48;;;;;;;67.00;29.52;;;;;;;9.19;43.57;96276.28;4963240;28;20050;-85
2021/03/29 03:47:17;;;;;;;57.72;25.90;;;;;;;9.23;42.85;96277.50;4995604;23;20164;-85
2021/03/29 03:49:42;;;;;;;50.45;27.08;;;;;;;9.25;43.00;96272.94;4974650;28;20042;-86
2021/03/29 03:52:12;;;;;;;53.60;26.33;;;;;;;9.16;42.60;96268.88;4998675;23;20129;-85
2021/03/29 03:54:42;;;;;;;74.10;35.13;;;;;;;9.24;43.18;96285.09;4966599;28;20038;-86
2021/03/29 04:00:31;;;;;;;77.90;33.40;;;;;;;9.42;44.07;96284.66;5113874;23;20059;-86
2021/03/29 04:03:50;;;;;;;;;;;;;;;;;;;;;
2021/03/29 04:09:42;;;;;;;39.83;16.00;;;;;;;9.45;41.99;96253.13;5004880;28;20046;-85
2021/03/29 04:15:40;;;;;;;54.08;19.30;;;;;;;9.41;42.60;96251.88;5019057;23;20046;-86
2021/03/29 04:18:29;;;;;;;74.03;24.63;;;;;;;9.55;43.04;96274.38;4998120;28;20558;-86
2021/03/29 04:21:00;;;;;;;110.40;33.08;;;;;;;9.28;46.41;96247.44;4981364;28;20065;-88
2021/03/29 04:23:26;;;;;;;94.15;33.35;;;;;;;9.26;47.05;96254.56;4995437;28;20572;-87
2021/03/29 04:31:50;;;;;;;142.60;63.60;;;;;;;9.30;45.88;96252.44;4994749;28;20125;-86
2021/03/29 04:34:35;;;;;;;150.68;65.13;;;;;;;9.23;46.17;96238.56;4962703;28;20078;-86
2021/03/29 04:41:15;;;;;;;;;;;;;;;;;;;;;
2021/03/29 04:46:25;;;;;;;112.28;57.08;;;;;;;9.40;46.04;96280.63;4996633;28;20054;-88
2021/03/29 04:48:52;;;;;;;102.15;46.95;;;;;;;9.33;45.68;96299.56;4988872;28;20030;-88
2021/03/29 04:55:55;;;;;;;36.25;16.45;;;;;;;9.29;43.00;96305.34;4952033;28;20095;-87
2021/03/29 04:58:20;;;;;;;45.42;18.30;;;;;;;9.20;44.35;96296.06;4896919;29;20053;-87
2021/03/29 05:00:46;;;;;;;25.33;14.07;;;;;;;9.19;44.23;96303.03;4963360;28;20077;-87
2021/03/29 05:03:11;;;;;;;37.33;14.02;;;;;;;9.24;44.50;96294.69;4961777;28;20441;-87
2021/03/29 05:06:24;;;;;;;59.85;24.35;;;;;;;9.56;44.47;96291.56;4988346;28;20042;-87
2021/03/29 05:08:50;;;;;;;124.72;63.58;;;;;;;9.82;43.55;96292.72;4981544;28;20077;-86
2021/03/29 05:11:25;;;;;;;72.97;42.50;;;;;;;9.92;42.53;96280.19;4954100;28;20429;-86
2021/03/29 05:13:51;;;;;;;52.63;27.92;;;;;;;10.19;41.79;96289.72;4950002;28;20053;-86
2021/03/29 05:16:17;;;;;;;30.95;16.33;;;;;;;10.51;40.00;96295.31;4989855;28;20030;-86
2021/03/29 05:25:00;;;;;;;30.15;13.77;;;;;;;10.83;39.31;96283.38;4969661;28;20095;-87
2021/03/29 05:27:29;;;;;;;37.60;19.10;;;;;;;10.92;39.44;96282.22;4914299;29;20044;-88
2021/03/29 05:29:55;;;;;;;35.42;15.68;;;;;;;11.36;38.30;96299.88;4906220;29;20035;-87
2021/03/29 05:32:22;;;;;;;41.30;17.83;;;;;;;11.56;37.44;96288.69;4964538;23;20034;-86
2021/03/29 05:34:49;;;;;;;53.42;23.45;;;;;;;11.77;38.33;96301.47;4976224;28;20126;-83
2021/03/29 05:37:15;;;;;;;58.70;27.60;;;;;;;12.00;37.65;96307.06;4986103;28;20042;-86
2021/03/29 05:39:41;;;;;;;40.60;21.38;;;;;;;12.20;36.74;96309.66;4956512;28;20105;-85
2021/03/29 05:42:07;;;;;;;61.05;25.52;;;;;;;12.33;36.77;96316.63;4945472;28;20035;-82
2021/03/29 05:44:34;;;;;;;78.80;30.85;;;;;;;12.36;37.58;96310.97;4989340;28;20046;-86
2021/03/29 05:46:59;;;;;;;66.38;28.63;;;;;;;12.51;36.23;96319.38;4972547;28;20022;-83
2021/03/29 05:49:25;;;;;;;60.15;32.97;;;;;;;12.60;36.49;96320.75;4965500;28;20026;-83
2021/03/29 05:51:50;;;;;;;53.80;27.13;;;;;;;12.64;36.42;96318.50;4955178;28;20031;-83
2021/03/29 05:54:16;;;;;;;29.33;15.73;;;;;;;12.63;36.27;96312.50;4977189;28;20042;-84
2021/03/29 05:56:45;;;;;;;22.30;8.82;;;;;;;12.90;35.63;96313.19;4963437;28;20110;-87
2021/03/29 05:59:13;;;;;;;27.60;12.50;;;;;;;13.14;35.02;96314.22;4973038;28;20041;-85
2021/03/29 06:01:49;;;;;;;37.00;11.68;;;;;;;13.38;34.46;96317.13;4980665;28;20030;-81
2021/03/29 06:04:44;;;;;;;24.67;10.95;;;;;;;13.77;33.65;96314.19;4961098;28;20125;-77
2021/03/29 06:07:19;;;;;;;25.50;10.73;;;;;;;14.27;32.89;96316.72;4987590;28;20134;-81
2021/03/29 06:09:49;;;;;;;26.50;10.13;;;;;;;14.64;32.72;96324.59;4993922;28;20046;-81
2021/03/29 06:12:16;;;;;;;15.40;7.60;;;;;;;14.98;32.01;96307.47;4971725;28;20077;-81
2021/03/29 06:14:44;;;;;;;17.08;7.82;;;;;;;15.39;31.23;96304.03;4986934;28;20062;-81
2021/03/29 06:17:13;;;;;;;13.10;6.30;;;;;;;15.70;30.68;96305.59;4991998;28;20057;-81
2021/03/29 06:19:57;;;;;;;23.58;5.97;;;;;;;16.10;30.45;96308.31;4973981;28;20042;-81
2021/03/29 06:22:30;;;;;;;17.05;7.15;;;;;;;16.26;30.03;96306.81;4956452;28;20053;-80
2021/03/29 06:25:28;;;;;;;11.45;6.43;;;;;;;16.54;29.12;96308.69;4943305;28;20513;-79
2021/03/29 06:27:56;;;;;;;14.63;7.70;;;;;;;16.78;28.46;96310.28;4951205;28;20529;-79
2021/03/29 06:30:24;;;;;;;18.50;8.50;;;;;;;16.93;28.03;96306.34;4969076;28;20541;-80
2021/03/29 06:33:16;;;;;;;14.65;7.22;;;;;;;17.05;27.68;96304.44;4980785;28;20062;-80
2021/03/29 06:35:49;;;;;;;11.93;6.40;;;;;;;17.09;26.81;96305.59;4967842;28;20061;-79
2021/03/29 06:38:24;;;;;;;14.13;5.65;;;;;;;17.25;26.89;96309.28;4967937;28;20074;-81
2021/03/29 06:40:52;;;;;;;17.52;6.55;;;;;;;17.22;26.85;96312.34;4994046;28;20034;-78
2021/03/29 06:43:28;;;;;;;6.95;4.50;;;;;;;16.80;27.76;96312.66;5001089;28;20050;-78
2021/03/29 06:45:55;;;;;;;16.85;5.53;;;;;;;16.77;27.72;96302.63;4960238;28;20057;-78
2021/03/29 06:48:23;;;;;;;25.38;10.25;;;;;;;16.89;27.54;96310.44;4966337;28;20031;-80
2021/03/29 06:51:03;;;;;;;17.92;8.68;;;;;;;16.88;27.37;96303.59;4942059;28;20039;-81
2021/03/29 06:53:29;;;;;;;8.10;5.00;;;;;;;16.81;27.49;96311.63;4983999;28;20034;-81
2021/03/29 06:55:56;;;;;;;15.95;6.40;;;;;;;16.75;27.42;96310.72;4958487;28;20302;-79
2021/03/29 06:58:25;;;;;;;10.68;5.20;;;;;;;16.27;27.98;96312.84;4986078;28;20045;-81
2021/03/29 07:00:55;;;;;;;10.40;4.53;;;;;;;16.02;28.85;96316.53;4982465;28;20038;-78
2021/03/29 07:03:20;;;;;;;8.15;4.45;;;;;;;15.97;29.16;96318.25;4935540;28;20054;-78
2021/03/29 07:05:47;;;;;;;19.10;5.10;;;;;;;16.16;28.94;96322.34;4969379;28;20061;-78
2021/03/29 07:08:13;;;;;;;10.32;5.90;;;;;;;16.16;29.73;96322.34;4966884;28;20483;-77
2021/03/29 07:10:40;;;;;;;7.75;4.30;;;;;;;16.05;28.31;96316.09;4959268;28;20034;-79
2021/03/29 07:13:09;;;;;;;13.45;5.60;;;;;;;16.01;27.66;96303.66;4937721;28;20035;-77
2021/03/29 07:15:35;;;;;;;12.35;5.10;;;;;;;15.64;27.60;96318.81;4982332;28;20122;-79
2021/03/29 07:18:01;;;;;;;15.02;4.75;;;;;;;15.35;27.67;96315.19;4953542;28;20035;-81
2021/03/29 07:20:26;;;;;;;9.30;4.57;;;;;;;15.19;28.10;96324.50;4960510;28;20043;-78
2021/03/29 07:22:55;;;;;;;8.88;5.15;;;;;;;15.29;28.48;96322.94;4937133;28;20395;-79
2021/03/29 07:25:22;;;;;;;10.68;5.35;;;;;;;15.49;28.41;96320.00;4963923;28;20039;-80
2021/03/29 07:27:55;;;;;;;9.13;4.63;;;;;;;15.48;28.90;96321.03;4987993;28;20407;-80
2021/03/29 07:30:47;;;;;;;15.70;4.65;;;;;;;15.39;28.41;96309.28;4967945;28;20130;-79
2021/03/29 07:33:14;;;;;;;9.23;4.65;;;;;;;15.16;28.55;96314.47;4967822;28;20503;-80
2021/03/29 07:35:53;;;;;;;5.90;4.15;;;;;;;14.54;28.85;96319.09;4969260;28;20034;-85
2021/03/29 07:38:28;;;;;;;9.75;4.75;;;;;;;14.36;29.76;96318.06;4958647;28;20070;-79
2021/03/29 07:40:57;;;;;;;14.82;5.00;;;;;;;14.56;31.96;96314.44;4958700;28;20055;-79
2021/03/29 07:43:24;;;;;;;23.23;6.60;;;;;;;14.85;32.07;96316.28;4964409;23;20043;-80
2021/03/29 07:46:03;;;;;;;11.93;5.07;;;;;;;15.14;31.44;96319.13;4974848;28;20522;-79
2021/03/29 07:48:36;;;;;;;15.73;4.95;;;;;;;15.42;29.60;96314.06;4964072;28;20049;-81
2021/03/29 07:51:06;;;;;;;11.18;4.53;;;;;;;15.25;28.07;96315.72;4966435;28;20415;-79
2021/03/29 07:53:51;;;;;;;7.22;4.53;;;;;;;15.20;30.43;96320.84;4971804;28;20102;-80
2021/03/29 07:56:35;;;;;;;7.53;4.50;;;;;;;15.17;28.99;96324.72;4965360;28;20035;-79
2021/03/29 07:59:02;;;;;;;10.13;4.72;;;;;;;15.23;29.12;96317.78;4982024;28;20058;-79
2021/03/29 08:01:28;;;;;;;8.32;5.18;;;;;;;15.30;28.86;96308.00;4984545;28;20061;-79
2021/03/29 08:03:56;;;;;;;19.27;5.97;;;;;;;15.41;29.56;96315.09;4979690;28;20034;-79
2021/03/29 08:06:42;;;;;;;11.10;5.40;;;;;;;15.64;30.23;96321.44;4936476;28;20019;-80
2021/03/29 08:09:10;;;;;;;17.08;9.30;;;;;;;15.61;29.36;96312.97;4958426;28;20495;-80
2021/03/29 08:12:01;;;;;;;20.77;7.53;;;;;;;15.69;29.23;96321.56;4959325;28;20217;-78
2021/03/29 08:14:31;;;;;;;14.95;5.32;;;;;;;15.70;29.08;96315.28;4956308;28;20070;-79
2021/03/29 08:17:18;;;;;;;15.00;4.80;;;;;;;15.50;28.96;96319.00;4974790;28;20046;-82
2021/03/29 08:20:16;;;;;;;7.53;3.90;;;;;;;15.27;29.04;96311.84;4976130;28;20391;-81
2021/03/29 08:22:42;;;;;;;5.70;3.70;;;;;;;15.35;29.07;96309.94;5238084;23;20022;-82
2021/03/29 08:25:26;;;;;;;10.02;4.43;;;;;;;15.49;29.04;96306.09;4977165;28;20046;-81
2021/03/29 08:27:55;;;;;;;21.95;6.70;;;;;;;15.41;28.85;96309.03;4946398;28;20051;-82
2021/03/29 08:30:30;;;;;;;20.27;4.50;;;;;;;15.43;27.69;96312.22;4948041;29;20054;-83
2021/03/29 08:33:11;;;;;;;9.15;4.82;;;;;;;15.52;27.27;96301.22;4943836;29;20045;-82
2021/03/29 08:35:38;;;;;;;7.43;4.18;;;;;;;15.43;28.18;96302.53;4940818;29;20074;-80
2021/03/29 08:38:07;;;;;;;11.07;5.18;;;;;;;15.40;27.93;96308.25;4958120;28;20550;-81
2021/03/29 08:40:33;;;;;;;11.10;3.60;;;;;;;15.39;28.04;96308.47;4957594;29;20055;-80
2021/03/29 08:43:07;;;;;;;11.77;4.70;;;;;;;15.46;27.83;96302.13;4941350;29;20098;-80
2021/03/29 08:45:33;;;;;;;8.77;3.72;;;;;;;15.52;27.57;96309.06;4926124;29;20039;-81
2021/03/29 08:48:00;;;;;;;15.85;5.03;;;;;;;15.54;27.21;96309.63;4959239;28;20027;-80
2021/03/29 08:50:36;;;;;;;25.25;9.50;;;;;;;15.56;28.26;96299.72;4956604;28;20131;-82
2021/03/29 08:53:10;;;;;;;11.07;5.82;;;;;;;15.55;28.22;96300.75;4941983;29;20028;-81
2021/03/29 08:55:36;;;;;;;4.13;3.00;;;;;;;15.59;27.12;96307.16;4943260;29;20095;-80
2021/03/29 08:58:02;;;;;;;6.78;3.17;;;;;;;15.54;28.19;96299.16;4929167;29;20094;-81
2021/03/29 09:00:30;;;;;;;4.82;3.60;;;;;;;15.49;26.58;96299.03;4941924;29;20035;-77
2021/03/29 09:02:55;;;;;;;10.10;4.10;;;;;;;15.43;27.12;96299.94;4951173;29;20035;-77
2021/03/29 09:05:22;;;;;;;7.53;3.47;;;;;;;15.32;27.74;96295.47;4950936;29;20035;-79
2021/03/29 09:07:53;;;;;;;9.05;3.80;;;;;;;15.35;27.62;96289.78;4957211;28;20518;-83
2021/03/29 09:10:22;;;;;;;8.07;3.80;;;;;;;15.35;28.44;96287.16;4935487;29;20431;-80
2021/03/29 09:13:01;;;;;;;18.75;3.97;;;;;;;15.38;28.46;96291.94;4940925;29;20038;-81
2021/03/29 09:15:31;;;;;;;5.68;3.47;;;;;;;15.42;28.59;96285.22;4940304;29;20047;-79
2021/03/29 09:18:01;;;;;;;4.85;3.50;;;;;;;15.47;28.23;96288.00;4948538;29;20034;-79
2021/03/29 09:20:35;;;;;;;6.25;3.60;;;;;;;15.48;29.68;96281.72;4948919;29;20039;-80
2021/03/29 09:23:00;;;;;;;5.88;3.13;;;;;;;15.49;29.02;96290.38;4957300;28;20127;-79
2021/03/29 09:25:38;;;;;;;6.13;3.13;;;;;;;15.32;28.79;96277.13;4941849;29;20397;-80
2021/03/29 09:28:19;;;;;;;9.63;3.97;;;;;;;15.30;28.56;96284.44;4932854;29;20043;-78
2021/03/29 09:30:47;;;;;;;6.43;3.20;;;;;;;15.17;29.11;96276.75;4965481;29;20042;-79
2021/03/29 09:33:13;;;;;;;5.78;3.20;;;;;;;15.06;28.80;96274.91;4964668;29;20039;-78
2021/03/29 09:35:38;;;;;;;13.73;3.72;;;;;;;14.84;30.21;96266.75;4946525;29;20042;-78
2021/03/29 09:38:04;;;;;;;6.63;3.70;;;;;;;14.94;30.03;96274.84;4959643;28;20031;-79
2021/03/29 09:40:34;;;;;;;7.43;3.13;;;;;;;14.95;28.93;96272.00;4955498;29;20122;-79
2021/03/29 09:43:00;;;;;;;4.32;2.90;;;;;;;15.12;29.53;96268.75;4932009;29;20060;-81
2021/03/29 09:45:26;;;;;;;12.13;3.92;;;;;;;15.27;28.27;96261.25;4937730;29;20027;-80
2021/03/29 09:48:09;;;;;;;7.32;3.80;;;;;;;15.39;29.41;96259.47;4956531;29;20093;-80
2021/03/29 09:50:41;;;;;;;9.57;5.60;;;;;;;15.53;29.12;96263.47;4954768;29;20110;-81
2021/03/29 09:53:17;;;;;;;9.75;4.65;;;;;;;15.51;27.49;96259.50;4939806;29;20035;-81
2021/03/29 09:55:50;;;;;;;12.00;5.55;;;;;;;15.53;27.90;96258.22;4957274;29;20066;-83
2021/03/29 09:58:20;;;;;;;15.75;9.27;;;;;;;15.60;27.68;96253.69;4954311;28;20027;-80
2021/03/29 10:00:46;;;;;;;9.30;4.13;;;;;;;15.53;28.90;96250.38;4958630;29;20122;-80
2021/03/29 10:03:15;;;;;;;9.05;4.68;;;;;;;15.44;27.42;96249.09;4950919;29;20102;-83
2021/03/29 10:05:45;;;;;;;4.93;3.42;;;;;;;15.43;27.30;96242.25;4942621;29;20023;-78
2021/03/29 10:08:10;;;;;;;5.30;2.70;;;;;;;15.44;26.90;96248.28;4965183;29;20043;-82
2021/03/29 10:10:36;;;;;;;11.80;3.25;;;;;;;15.50;28.60;96245.59;4956828;28;20094;-82
2021/03/29 10:13:12;;;;;;;9.35;3.70;;;;;;;15.70;27.87;96245.28;4940519;29;20031;-80
2021/03/29 10:15:39;;;;;;;11.43;3.35;;;;;;;15.82;27.03;96242.66;4957499;29;20170;-80
2021/03/29 10:18:06;;;;;;;9.05;3.40;;;;;;;15.94;26.99;96240.00;4956842;29;20110;-80
2021/03/29 10:20:34;;;;;;;7.82;3.45;;;;;;;15.83;26.46;96234.56;4957028;29;20035;-80
2021/03/29 10:23:32;;;;;;;12.18;4.88;;;;;;;15.75;27.29;96236.72;4956466;29;20038;-80
2021/03/29 10:26:31;;;;;;;6.85;3.28;;;;;;;15.74;27.18;96232.50;4937807;29;20531;-81
2021/03/29 10:29:00;;;;;;;10.90;3.50;;;;;;;15.81;27.21;96233.19;4911140;28;20070;-81
2021/03/29 10:31:31;;;;;;;4.65;3.47;;;;;;;15.76;27.44;96206.81;4970742;28;20027;-80
2021/03/29 10:33:57;;;;;;;12.95;5.18;;;;;;;15.69;27.63;96211.41;4970206;28;20510;-80
2021/03/29 10:36:23;;;;;;;13.80;4.78;;;;;;;15.40;27.56;96208.63;4941964;29;20035;-81
2021/03/29 10:38:50;;;;;;;14.90;6.55;;;;;;;15.41;27.31;96217.28;4955749;28;20031;-81
2021/03/29 10:41:15;;;;;;;14.80;9.88;;;;;;;15.47;27.43;96216.41;4939600;29;20086;-81
2021/03/29 10:43:41;;;;;;;9.45;6.28;;;;;;;15.46;27.78;96201.72;4940438;29;20031;-80
2021/03/29 10:46:28;;;;;;;18.23;6.82;;;;;;;15.46;28.25;96213.00;4932858;29;20401;-81
2021/03/29 10:48:53;;;;;;;5.93;3.10;;;;;;;15.51;27.60;96212.28;5065567;23;20046;-82
2021/03/29 10:51:22;;;;;;;6.47;3.13;;;;;;;15.21;28.20;96196.66;4965484;28;20026;-83
2021/03/29 10:53:48;;;;;;;8.98;3.22;;;;;;;14.83;28.75;96186.59;4975877;28;20054;-79
2021/03/29 10:56:13;;;;;;;8.05;3.72;;;;;;;14.74;29.50;96199.19;4955861;28;20105;-81
2021/03/29 10:58:39;;;;;;;10.38;3.80;;;;;;;14.82;29.50;96201.50;5017242;23;20378;-81
2021/03/29 11:01:04;;;;;;;6.25;3.58;;;;;;;14.91;28.95;96184.44;4986685;28;20042;-80
2021/03/29 11:03:30;;;;;;;9.07;5.30;;;;;;;15.04;29.11;96172.16;4978094;28;20023;-81
2021/03/29 11:05:55;;;;;;;15.95;4.70;;;;;;;15.01;29.38;96187.31;4975580;28;20037;-79
2021/03/29 11:08:21;;;;;;;21.08;3.40;;;;;;;14.88;29.64;96174.41;4974006;28;20039;-80
2021/03/29 11:10:46;;;;;;;7.32;3.15;;;;;;;14.94;29.35;96178.75;4974436;28;20041;-80
2021/03/29 11:13:12;;;;;;;5.50;3.05;;;;;;;15.00;29.29;96172.63;4972533;28;20058;-81
2021/03/29 11:15:37;;;;;;;4.40;3.38;;;;;;;15.04;28.52;96172.97;4941571;28;20085;-81
2021/03/29 11:18:05;;;;;;;12.15;4.93;;;;;;;15.13;28.58;96168.16;4941734;28;20121;-80
2021/03/29 11:20:33;;;;;;;10.95;4.10;;;;;;;15.29;29.10;96164.88;4945696;28;20049;-85
2021/03/29 11:22:59;;;;;;;8.73;3.50;;;;;;;15.32;28.64;96153.94;4964134;28;20042;-86
2021/03/29 11:25:28;;;;;;;11.15;5.13;;;;;;;15.42;28.57;96150.75;4978052;28;20038;-85
2021/03/29 11:27:53;;;;;;;9.65;5.97;;;;;;;15.36;29.16;96146.44;4979197;28;20037;-86
2021/03/29 11:30:19;;;;;;;16.02;4.10;;;;;;;15.26;29.00;96139.91;4983303;28;20030;-86
2021/03/29 11:32:46;;;;;;;9.68;3.90;;;;;;;15.08;28.63;96142.66;4956730;28;20029;-85
2021/03/29 11:35:12;;;;;;;12.23;4.30;;;;;;;15.15;28.58;96139.94;4977566;28;20022;-87
2021/03/29 11:37:38;;;;;;;6.13;3.35;;;;;;;15.12;29.44;96137.75;4993806;28;20556;-81
2021/03/29 11:40:21;;;;;;;5.55;3.65;;;;;;;15.16;29.42;96123.19;4985440;28;20035;-82
2021/03/29 11:42:47;;;;;;;4.35;3.08;;;;;;;15.15;30.10;96121.59;4980424;28;20035;-78
2021/03/29 11:45:13;;;;;;;4.00;2.58;;;;;;;15.09;29.08;96117.25;4973641;28;20038;-77
2021/03/29 11:47:39;;;;;;;8.80;2.58;;;;;;;15.00;28.46;96120.22;4969892;28;20483;-78
2021/03/29 11:50:10;;;;;;;6.65;3.42;;;;;;;14.98;29.56;96106.56;4976448;28;20085;-80
2021/03/29 11:52:35;;;;;;;6.72;3.38;;;;;;;14.77;28.72;96099.25;4973067;28;20509;-77
2021/03/29 11:55:00;;;;;;;4.00;2.75;;;;;;;14.72;29.53;96112.22;4969150;28;20039;-77
2021/03/29 11:57:26;;;;;;;9.63;3.97;;;;;;;14.70;29.34;96111.66;4950750;28;20035;-76
2021/03/29 11:59:53;;;;;;;11.45;3.53;;;;;;;14.76;28.63;96108.13;4968833;28;20186;-77
2021/03/29 12:02:25;;;;;;;15.27;6.38;;;;;;;14.83;29.31;96103.59;4968886;28;20039;-78
2021/03/29 12:07:45;;;;;;;4.68;3.13;;;;;;;14.91;28.90;96097.22;4976885;28;19929;-76
2021/03/29 12:12:36;;;;;;;18.05;4.20;;;;;;;14.96;28.14;96094.69;4962459;28;20039;-77
2021/03/29 12:15:02;;;;;;;10.65;4.25;;;;;;;14.92;28.82;96099.59;4935232;28;20042;-79
2021/03/29 12:17:33;;;;;;;10.40;3.83;;;;;;;14.97;28.25;96091.88;4969811;28;20058;-77
2021/03/29 12:19:59;;;;;;;12.18;3.85;;;;;;;15.02;28.06;96096.41;4985186;28;21903;-76
2021/03/29 12:22:25;;;;;;;10.57;4.82;;;;;;;14.97;28.06;96083.22;4972068;28;20042;-78
2021/03/29 12:24:52;;;;;;;8.35;3.90;;;;;;;14.91;28.66;96078.88;4957312;28;20046;-77
2021/03/29 12:27:17;;;;;;;3.72;2.72;;;;;;;14.63;28.92;96084.75;4973223;28;20059;-77
2021/03/29 12:29:44;;;;;;;6.47;3.28;;;;;;;14.69;28.85;96086.50;4986410;28;20035;-77
2021/03/29 12:32:19;;;;;;;4.85;2.67;;;;;;;14.78;28.92;96079.88;4968231;28;20451;-78
2021/03/29 12:34:48;;;;;;;9.13;2.80;;;;;;;14.79;28.70;96072.81;4967060;28;20041;-78
2021/03/29 12:37:16;;;;;;;6.25;2.38;;;;;;;14.77;28.91;96077.50;4953377;28;20042;-78
2021/03/29 12:42:17;;;;;;;9.30;3.33;;;;;;;14.63;28.94;96067.22;4969225;28;20042;-78
2021/03/29 12:44:43;;;;;;;5.85;3.05;;;;;;;14.54;29.64;96065.19;4970244;28;20034;-77
2021/03/29 12:47:11;;;;;;;6.25;2.63;;;;;;;14.55;29.50;96067.56;4962596;28;20057;-78
2021/03/29 12:49:37;;;;;;;7.85;3.45;;;;;;;14.64;29.32;96063.63;4976999;28;20471;-78
2021/03/29 12:52:07;;;;;;;13.27;5.20;;;;;;;14.65;28.77;96052.13;4966533;28;20031;-77
2021/03/29 12:54:36;;;;;;;15.60;4.78;;;;;;;14.67;28.74;96047.44;4946994;28;20039;-77
2021/03/29 12:57:02;;;;;;;13.80;4.68;;;;;;;14.74;28.68;96052.56;4963244;28;20039;-76
2021/03/29 12:59:29;;;;;;;19.02;3.67;;;;;;;14.83;29.26;96056.44;4963726;28;20039;-76
2021/03/29 13:01:57;;;;;;;20.25;6.82;;;;;;;14.80;28.72;96051.66;4960378;28;20146;-75
2021/03/29 13:04:39;;;;;;;10.85;3.95;;;;;;;14.79;28.70;96055.28;4944854;28;20039;-76
2021/03/29 13:07:44;;;;;;;14.53;6.13;;;;;;;14.86;29.24;96050.75;4946321;28;20027;-76
2021/03/29 13:10:01;;;;;;;10.35;5.30;;;;;;;14.89;28.31;96042.44;4959368;28;20051;-76
2021/03/29 13:12:27;;;;;;;5.97;2.05;;;;;;;14.93;27.89;96043.56;4962320;28;20364;-78
2021/03/29 13:14:59;;;;;;;7.45;2.90;;;;;;;14.97;28.63;96039.50;4933111;28;20027;-77
2021/03/29 13:17:28;;;;;;;5.45;2.20;;;;;;;14.94;27.80;96026.81;4963325;28;20113;-77
2021/03/29 13:19:54;;;;;;;8.95;2.50;;;;;;;15.06;27.69;96028.66;4946259;28;20045;-79
2021/03/29 13:22:19;;;;;;;6.80;2.75;;;;;;;15.07;27.92;96025.78;4978156;28;20042;-76
2021/03/29 13:24:46;;;;;;;3.55;2.63;;;;;;;15.10;27.39;96029.78;4962909;28;20497;-76
2021/03/29 13:27:11;;;;;;;5.80;2.05;;;;;;;15.18;27.51;96019.75;4927874;28;20144;-77
2021/03/29 13:29:38;;;;;;;9.65;2.50;;;;;;;15.26;27.30;96023.81;4952818;28;20052;-76
2021/03/29 13:32:05;;;;;;;5.75;2.28;;;;;;;15.16;28.04;96019.19;4960561;28;20073;-77
2021/03/29 13:34:31;;;;;;;8.27;2.30;;;;;;;14.96;27.40;96014.28;4975838;28;20035;-75
2021/03/29 13:36:56;;;;;;;11.05;2.75;;;;;;;14.98;27.43;96022.75;4963784;28;20028;-78
2021/03/29 13:39:22;;;;;;;8.30;2.60;;;;;;;14.95;27.36;96007.47;4928143;28;20043;-78
2021/03/29 13:41:47;;;;;;;12.45;5.40;;;;;;;14.99;27.88;96007.81;4960992;28;20046;-78